createdAt,value
2018-12-16T00:00:11.448Z,0
2018-12-16T00:01:11.431Z,0
2018-12-16T00:02:11.411Z,0
2018-12-16T00:03:11.145Z,0
2018-12-16T00:04:11.363Z,0
2018-12-16T00:05:11.343Z,0
2018-12-16T00:06:11.319Z,0
2018-12-16T00:07:11.050Z,0
2018-12-16T00:08:11.027Z,0
2018-12-16T00:09:11.255Z,0
2018-12-16T00:10:11.276Z,0
2018-12-16T00:11:11.220Z,0
2018-12-16T00:12:10.944Z,0
2018-12-16T00:13:11.178Z,0
2018-12-16T00:14:11.188Z,0
2018-12-16T00:15:11.132Z,0
2018-12-16T00:16:11.121Z,0
2018-12-16T00:17:11.094Z,0
2018-12-16T00:18:11.071Z,0
2018-12-16T00:19:11.052Z,0
2018-12-16T00:20:10.872Z,0
2018-12-16T00:21:11.015Z,0
2018-12-16T00:22:10.491Z,0
2018-12-16T00:23:23.721Z,0
2018-12-16T00:24:10.959Z,0
2018-12-16T00:25:10.945Z,0
2018-12-16T00:26:10.922Z,0
2018-12-16T00:27:10.651Z,0
2018-12-16T00:28:10.633Z,0
2018-12-16T00:29:10.862Z,0
2018-12-16T00:30:10.848Z,0
2018-12-16T00:31:10.824Z,0
2018-12-16T00:32:10.570Z,0
2018-12-16T00:33:10.526Z,0
2018-12-16T00:34:10.782Z,0
2018-12-16T00:35:10.489Z,0
2018-12-16T00:36:10.713Z,0
2018-12-16T00:37:10.693Z,0
2018-12-16T00:38:10.184Z,0
2018-12-16T00:39:10.403Z,0
2018-12-16T00:40:10.636Z,0
2018-12-16T00:41:10.617Z,0
2018-12-16T00:42:10.591Z,0
2018-12-16T00:43:10.326Z,0
2018-12-16T00:44:10.553Z,0
2018-12-16T00:45:10.532Z,0
2018-12-16T00:46:10.259Z,0
2018-12-16T00:47:10.496Z,0
2018-12-16T00:48:10.475Z,0
2018-12-16T00:49:10.456Z,0
2018-12-16T00:50:10.183Z,0
2018-12-16T00:51:10.410Z,0
2018-12-16T00:52:10.382Z,0
2018-12-16T00:53:10.373Z,0
2018-12-16T00:54:10.099Z,0
2018-12-16T00:55:10.334Z,0
2018-12-16T00:56:09.809Z,0
2018-12-16T00:57:10.293Z,0
2018-12-16T00:58:10.013Z,0
2018-12-16T00:59:10.249Z,0
2018-12-16T01:00:10.054Z,0
2018-12-16T01:01:09.955Z,0
2018-12-16T01:02:10.188Z,0
2018-12-16T01:03:10.185Z,0
2018-12-16T01:04:09.896Z,0
2018-12-16T01:05:10.202Z,0
2018-12-16T01:06:10.100Z,0
2018-12-16T01:07:10.089Z,0
2018-12-16T01:08:10.075Z,0
2018-12-16T01:09:09.796Z,0
2018-12-16T01:10:10.034Z,0
2018-12-16T01:11:09.996Z,0
2018-12-16T01:12:09.981Z,0
2018-12-16T01:13:09.961Z,0
2018-12-16T01:14:09.938Z,0
2018-12-16T01:15:09.923Z,0
2018-12-16T01:16:09.652Z,0
2018-12-16T01:17:09.881Z,0
2018-12-16T01:18:09.367Z,0
2018-12-16T01:19:09.843Z,0
2018-12-16T01:20:09.817Z,0
2018-12-16T01:21:09.795Z,0
2018-12-16T01:22:09.778Z,0
2018-12-16T01:23:09.774Z,0
2018-12-16T01:24:09.736Z,0
2018-12-16T01:25:09.715Z,0
2018-12-16T01:26:09.723Z,0
2018-12-16T01:27:09.476Z,0
2018-12-16T01:28:09.659Z,0
2018-12-16T01:29:09.384Z,0
2018-12-16T01:30:09.632Z,0
2018-12-16T01:31:09.343Z,0
2018-12-16T01:32:09.587Z,0
2018-12-16T01:33:09.547Z,0
2018-12-16T01:34:09.529Z,0
2018-12-16T01:35:09.259Z,0
2018-12-16T01:36:09.267Z,0
2018-12-16T01:37:09.224Z,0
2018-12-16T01:38:09.454Z,0
2018-12-16T01:39:09.426Z,0
2018-12-16T01:40:09.415Z,0
2018-12-16T01:41:09.142Z,0
2018-12-16T01:42:09.372Z,0
2018-12-16T01:43:09.099Z,0
2018-12-16T01:44:09.334Z,0
2018-12-16T01:45:09.397Z,0
2018-12-16T01:46:09.282Z,0
2018-12-16T01:47:09.270Z,0
2018-12-16T01:48:09.001Z,0
2018-12-16T01:49:09.220Z,0
2018-12-16T01:50:08.785Z,0
2018-12-16T01:51:09.188Z,0
2018-12-16T01:52:09.164Z,0
2018-12-16T01:53:09.153Z,0
2018-12-16T01:54:09.121Z,0
2018-12-16T01:55:09.182Z,0
2018-12-16T01:56:09.081Z,0
2018-12-16T01:57:08.822Z,0
2018-12-16T01:58:09.044Z,0
2018-12-16T01:59:09.018Z,0
2018-12-16T02:00:08.752Z,0
2018-12-16T02:01:08.975Z,0
2018-12-16T02:02:08.958Z,0
2018-12-16T02:03:08.945Z,0
2018-12-16T02:04:08.675Z,0
2018-12-16T02:05:08.895Z,0
2018-12-16T02:06:08.885Z,0
2018-12-16T02:07:08.608Z,0
2018-12-16T02:08:08.835Z,0
2018-12-16T02:09:08.838Z,0
2018-12-16T02:10:08.548Z,0
2018-12-16T02:11:08.779Z,0
2018-12-16T02:12:08.757Z,0
2018-12-16T02:13:08.743Z,0
2018-12-16T02:14:08.715Z,0
2018-12-16T02:15:08.441Z,0
2018-12-16T02:16:08.699Z,0
2018-12-16T02:17:08.408Z,0
2018-12-16T02:18:08.387Z,0
2018-12-16T02:19:08.615Z,0
2018-12-16T02:20:08.111Z,0
2018-12-16T02:21:08.585Z,0
2018-12-16T02:22:08.548Z,0
2018-12-16T02:23:08.531Z,0
2018-12-16T02:24:08.264Z,0
2018-12-16T02:25:07.992Z,0
2018-12-16T02:26:08.264Z,0
2018-12-16T02:27:08.452Z,0
2018-12-16T02:28:08.427Z,0
2018-12-16T02:29:08.405Z,0
2018-12-16T02:30:08.407Z,0
2018-12-16T02:31:08.369Z,0
2018-12-16T02:32:08.345Z,0
2018-12-16T02:33:08.415Z,0
2018-12-16T02:34:07.911Z,0
2018-12-16T02:35:08.041Z,0
2018-12-16T02:36:08.276Z,0
2018-12-16T02:37:08.255Z,0
2018-12-16T02:38:07.985Z,0
2018-12-16T02:39:08.218Z,0
2018-12-16T02:40:08.188Z,0
2018-12-16T02:41:07.977Z,0
2018-12-16T02:42:08.151Z,0
2018-12-16T02:43:07.898Z,0
2018-12-16T02:44:07.859Z,0
2018-12-16T02:45:08.077Z,0
2018-12-16T02:46:08.065Z,0
2018-12-16T02:47:07.799Z,0
2018-12-16T02:48:07.769Z,0
2018-12-16T02:49:07.758Z,0
2018-12-16T02:50:07.733Z,0
2018-12-16T02:51:07.965Z,0
2018-12-16T02:52:07.945Z,0
2018-12-16T02:53:14.292Z,0
2018-12-16T02:54:07.901Z,0
2018-12-16T02:55:07.626Z,0
2018-12-16T02:56:07.864Z,0
2018-12-16T02:57:07.850Z,0
2018-12-16T02:58:07.842Z,0
2018-12-16T02:59:07.804Z,0
2018-12-16T03:00:07.788Z,0
2018-12-16T03:01:07.761Z,0
2018-12-16T03:02:07.751Z,0
2018-12-16T03:03:07.744Z,0
2018-12-16T03:04:07.469Z,0
2018-12-16T03:05:07.679Z,0
2018-12-16T03:06:07.687Z,0
2018-12-16T03:07:07.632Z,0
2018-12-16T03:08:07.681Z,0
2018-12-16T03:09:07.590Z,0
2018-12-16T03:10:07.325Z,0
2018-12-16T03:11:07.556Z,0
2018-12-16T03:12:07.537Z,0
2018-12-16T03:13:07.514Z,0
2018-12-16T03:14:07.238Z,0
2018-12-16T03:15:07.478Z,0
2018-12-16T03:16:07.200Z,0
2018-12-16T03:17:07.432Z,0
2018-12-16T03:18:07.407Z,0
2018-12-16T03:19:07.388Z,0
2018-12-16T03:20:07.132Z,0
2018-12-16T03:21:07.102Z,0
2018-12-16T03:22:07.095Z,0
2018-12-16T03:23:14.687Z,0
2018-12-16T03:24:07.283Z,0
2018-12-16T03:25:07.014Z,0
2018-12-16T03:26:06.771Z,0
2018-12-16T03:27:07.251Z,0
2018-12-16T03:28:07.203Z,0
2018-12-16T03:29:06.947Z,0
2018-12-16T03:30:06.934Z,0
2018-12-16T03:31:07.172Z,0
2018-12-16T03:32:07.208Z,0
2018-12-16T03:33:07.181Z,0
2018-12-16T03:34:07.082Z,0
2018-12-16T03:35:06.836Z,0
2018-12-16T03:36:06.793Z,0
2018-12-16T03:37:07.026Z,0
2018-12-16T03:38:07.008Z,0
2018-12-16T03:39:06.977Z,0
2018-12-16T03:40:06.960Z,0
2018-12-16T03:41:06.944Z,0
2018-12-16T03:42:06.915Z,0
2018-12-16T03:43:06.900Z,0
2018-12-16T03:44:06.872Z,0
2018-12-16T03:45:06.868Z,0
2018-12-16T03:46:06.835Z,0
2018-12-16T03:47:06.838Z,0
2018-12-16T03:48:06.806Z,0
2018-12-16T03:49:06.787Z,0
2018-12-16T03:50:06.751Z,0
2018-12-16T03:51:06.745Z,0
2018-12-16T03:52:06.714Z,0
2018-12-16T03:53:06.686Z,0
2018-12-16T03:54:06.665Z,0
2018-12-16T03:55:06.395Z,0
2018-12-16T03:56:06.131Z,0
2018-12-16T03:57:06.611Z,0
2018-12-16T03:58:06.583Z,0
2018-12-16T03:59:06.573Z,0
2018-12-16T04:00:06.541Z,0
2018-12-16T04:01:06.271Z,0
2018-12-16T04:02:06.264Z,0
2018-12-16T04:03:06.475Z,0
2018-12-16T04:04:06.491Z,0
2018-12-16T04:05:06.433Z,0
2018-12-16T04:06:06.414Z,0
2018-12-16T04:07:06.426Z,0
2018-12-16T04:08:06.381Z,0
2018-12-16T04:09:06.359Z,0
2018-12-16T04:10:06.336Z,0
2018-12-16T04:11:06.327Z,0
2018-12-16T04:12:06.292Z,0
2018-12-16T04:13:06.292Z,0
2018-12-16T04:14:06.010Z,0
2018-12-16T04:15:06.107Z,0
2018-12-16T04:16:06.222Z,0
2018-12-16T04:17:05.942Z,0
2018-12-16T04:18:05.919Z,0
2018-12-16T04:19:05.652Z,0
2018-12-16T04:20:05.950Z,0
2018-12-16T04:21:06.123Z,0
2018-12-16T04:22:06.085Z,0
2018-12-16T04:23:06.057Z,0
2018-12-16T04:24:05.819Z,0
2018-12-16T04:25:05.798Z,0
2018-12-16T04:26:05.999Z,0
2018-12-16T04:27:05.748Z,0
2018-12-16T04:28:05.965Z,0
2018-12-16T04:29:05.951Z,0
2018-12-16T04:30:05.676Z,0
2018-12-16T04:31:05.890Z,0
2018-12-16T04:32:05.624Z,0
2018-12-16T04:33:05.609Z,0
2018-12-16T04:34:05.841Z,0
2018-12-16T04:35:05.344Z,0
2018-12-16T04:36:05.792Z,0
2018-12-16T04:37:05.772Z,0
2018-12-16T04:38:05.748Z,0
2018-12-16T04:39:05.726Z,0
2018-12-16T04:40:05.775Z,0
2018-12-16T04:41:05.983Z,0
2018-12-16T04:42:05.409Z,0
2018-12-16T04:43:05.634Z,0
2018-12-16T04:44:07.232Z,0
2018-12-16T04:45:05.632Z,0
2018-12-16T04:46:05.670Z,0
2018-12-16T04:47:05.581Z,0
2018-12-16T04:48:05.306Z,0
2018-12-16T04:49:05.292Z,0
2018-12-16T04:50:05.266Z,0
2018-12-16T04:51:05.512Z,0
2018-12-16T04:52:05.470Z,0
2018-12-16T04:53:05.214Z,0
2018-12-16T04:54:05.441Z,0
2018-12-16T04:55:05.160Z,0
2018-12-16T04:56:05.386Z,0
2018-12-16T04:57:05.362Z,0
2018-12-16T04:58:05.101Z,0
2018-12-16T04:59:05.322Z,0
2018-12-16T05:00:05.299Z,0
2018-12-16T05:01:05.274Z,0
2018-12-16T05:02:05.264Z,0
2018-12-16T05:03:05.250Z,0
2018-12-16T05:04:05.218Z,0
2018-12-16T05:05:04.955Z,0
2018-12-16T05:06:04.928Z,0
2018-12-16T05:07:04.902Z,0
2018-12-16T05:08:04.884Z,0
2018-12-16T05:09:04.859Z,0
2018-12-16T05:10:05.086Z,0
2018-12-16T05:11:05.185Z,0
2018-12-16T05:12:05.106Z,0
2018-12-16T05:13:05.022Z,0
2018-12-16T05:14:04.755Z,0
2018-12-16T05:15:04.731Z,0
2018-12-16T05:16:04.976Z,0
2018-12-16T05:17:04.953Z,0
2018-12-16T05:18:04.919Z,0
2018-12-16T05:19:04.898Z,0
2018-12-16T05:20:04.880Z,0
2018-12-16T05:21:05.147Z,0
2018-12-16T05:22:04.573Z,0
2018-12-16T05:23:04.557Z,0
2018-12-16T05:24:04.787Z,0
2018-12-16T05:25:04.763Z,0
2018-12-16T05:26:04.741Z,0
2018-12-16T05:27:04.480Z,0
2018-12-16T05:28:04.706Z,0
2018-12-16T05:29:04.713Z,0
2018-12-16T05:30:04.663Z,0
2018-12-16T05:31:04.390Z,0
2018-12-16T05:32:04.114Z,0
2018-12-16T05:33:04.593Z,0
2018-12-16T05:34:04.570Z,0
2018-12-16T05:35:04.562Z,0
2018-12-16T05:36:04.530Z,0
2018-12-16T05:37:04.502Z,0
2018-12-16T05:38:04.242Z,0
2018-12-16T05:39:04.480Z,0
2018-12-16T05:40:04.438Z,0
2018-12-16T05:41:04.429Z,0
2018-12-16T05:42:04.150Z,0
2018-12-16T05:43:04.150Z,0
2018-12-16T05:44:04.107Z,0
2018-12-16T05:45:04.352Z,0
2018-12-16T05:46:04.072Z,0
2018-12-16T05:47:04.295Z,0
2018-12-16T05:48:04.270Z,0
2018-12-16T05:49:04.246Z,0
2018-12-16T05:50:04.220Z,0
2018-12-16T05:51:04.204Z,0
2018-12-16T05:52:04.183Z,0
2018-12-16T05:53:04.159Z,0
2018-12-16T05:54:04.141Z,0
2018-12-16T05:55:04.133Z,0
2018-12-16T05:56:03.849Z,0
2018-12-16T05:57:04.081Z,0
2018-12-16T05:58:04.062Z,0
2018-12-16T05:59:03.795Z,0
2018-12-16T06:00:04.013Z,0
2018-12-16T06:01:03.990Z,0
2018-12-16T06:02:03.974Z,0
2018-12-16T06:03:03.956Z,0
2018-12-16T06:04:03.922Z,0
2018-12-16T06:05:03.901Z,0
2018-12-16T06:06:03.885Z,0
2018-12-16T06:07:03.861Z,0
2018-12-16T06:08:03.839Z,0
2018-12-16T06:09:03.820Z,0
2018-12-16T06:10:03.793Z,0
2018-12-16T06:11:03.788Z,0
2018-12-16T06:12:03.779Z,0
2018-12-16T06:13:03.735Z,0
2018-12-16T06:14:03.717Z,0
2018-12-16T06:15:03.448Z,0
2018-12-16T06:16:03.672Z,0
2018-12-16T06:17:03.653Z,0
2018-12-16T06:18:03.379Z,0
2018-12-16T06:19:03.605Z,0
2018-12-16T06:20:03.594Z,0
2018-12-16T06:21:03.314Z,0
2018-12-16T06:22:03.538Z,0
2018-12-16T06:23:03.568Z,0
2018-12-16T06:24:05.303Z,0
2018-12-16T06:25:03.235Z,0
2018-12-16T06:26:03.198Z,0
2018-12-16T06:27:03.435Z,0
2018-12-16T06:28:03.406Z,0
2018-12-16T06:29:03.394Z,0
2018-12-16T06:30:02.867Z,0
2018-12-16T06:31:03.345Z,0
2018-12-16T06:32:04.867Z,0
2018-12-16T06:33:03.314Z,0
2018-12-16T06:34:03.284Z,0
2018-12-16T06:35:03.051Z,0
2018-12-16T06:36:02.992Z,0
2018-12-16T06:37:03.222Z,0
2018-12-16T06:38:03.194Z,0
2018-12-16T06:39:03.188Z,0
2018-12-16T06:40:03.151Z,0
2018-12-16T06:41:03.125Z,0
2018-12-16T06:42:04.920Z,0
2018-12-16T06:43:03.180Z,0
2018-12-16T06:44:02.822Z,0
2018-12-16T06:45:03.046Z,0
2018-12-16T06:46:03.022Z,0
2018-12-16T06:47:02.763Z,0
2018-12-16T06:48:02.984Z,0
2018-12-16T06:49:02.958Z,0
2018-12-16T06:50:02.930Z,0
2018-12-16T06:51:02.912Z,0
2018-12-16T06:52:02.900Z,0
2018-12-16T06:53:02.872Z,0
2018-12-16T06:54:09.451Z,0
2018-12-16T06:55:02.832Z,5
2018-12-16T06:56:09.101Z,5
2018-12-16T06:57:02.539Z,5
2018-12-16T06:58:02.269Z,5
2018-12-16T06:59:02.494Z,5
2018-12-16T07:00:02.721Z,5
2018-12-16T07:01:02.512Z,5
2018-12-16T07:02:02.684Z,5
2018-12-16T07:03:02.408Z,5
2018-12-16T07:04:02.641Z,5
2018-12-16T07:05:02.611Z,5
2018-12-16T07:06:02.588Z,5
2018-12-16T07:07:02.807Z,5
2018-12-16T07:08:02.547Z,5
2018-12-16T07:09:02.275Z,5
2018-12-16T07:10:02.502Z,10
2018-12-16T07:11:02.492Z,10
2018-12-16T07:12:02.337Z,10
2018-12-16T07:13:02.460Z,10
2018-12-16T07:14:02.420Z,10
2018-12-16T07:15:02.407Z,15
2018-12-16T07:16:02.405Z,15
2018-12-16T07:17:02.406Z,15
2018-12-16T07:18:02.141Z,15
2018-12-16T07:19:02.401Z,15
2018-12-16T07:20:02.297Z,15
2018-12-16T07:21:02.300Z,15
2018-12-16T07:22:02.263Z,15
2018-12-16T07:23:02.274Z,20
2018-12-16T07:24:01.988Z,20
2018-12-16T07:25:02.254Z,20
2018-12-16T07:26:01.930Z,20
2018-12-16T07:27:02.183Z,25
2018-12-16T07:28:02.154Z,25
2018-12-16T07:29:02.115Z,25
2018-12-16T07:30:02.134Z,30
2018-12-16T07:31:02.078Z,30
2018-12-16T07:32:02.134Z,30
2018-12-16T07:33:02.037Z,35
2018-12-16T07:34:01.801Z,35
2018-12-16T07:35:02.002Z,35
2018-12-16T07:36:02.030Z,35
2018-12-16T07:37:01.952Z,40
2018-12-16T07:38:01.909Z,40
2018-12-16T07:39:01.897Z,40
2018-12-16T07:40:01.942Z,40
2018-12-16T07:41:01.702Z,40
2018-12-16T07:42:01.827Z,40
2018-12-16T07:43:01.899Z,40
2018-12-16T07:44:01.801Z,40
2018-12-16T07:45:01.888Z,40
2018-12-16T07:46:01.503Z,40
2018-12-16T07:47:01.545Z,40
2018-12-16T07:48:01.753Z,40
2018-12-16T07:49:01.723Z,45
2018-12-16T07:50:01.716Z,45
2018-12-16T07:51:01.418Z,50
2018-12-16T07:52:01.644Z,55
2018-12-16T07:53:01.890Z,60
2018-12-16T07:54:01.650Z,65
2018-12-16T07:55:01.377Z,65
2018-12-16T07:56:01.598Z,70
2018-12-16T07:57:01.339Z,70
2018-12-16T07:58:01.498Z,75
2018-12-16T07:59:01.559Z,80
2018-12-16T08:00:01.513Z,80
2018-12-16T08:01:01.450Z,80
2018-12-16T08:02:01.207Z,80
2018-12-16T08:03:01.470Z,80
2018-12-16T08:04:01.416Z,80
2018-12-16T08:05:01.448Z,80
2018-12-16T08:06:01.437Z,75
2018-12-16T08:07:01.295Z,75
2018-12-16T08:08:01.270Z,70
2018-12-16T08:09:01.248Z,70
2018-12-16T08:10:01.231Z,70
2018-12-16T08:11:01.209Z,70
2018-12-16T08:12:01.190Z,65
2018-12-16T08:13:01.190Z,70
2018-12-16T08:14:01.154Z,70
2018-12-16T08:15:00.884Z,70
2018-12-16T08:16:01.098Z,70
2018-12-16T08:17:01.086Z,70
2018-12-16T08:18:00.815Z,70
2018-12-16T08:19:06.789Z,70
2018-12-16T08:20:01.087Z,70
2018-12-16T08:21:00.999Z,70
2018-12-16T08:22:00.983Z,70
2018-12-16T08:23:00.959Z,70
2018-12-16T08:24:00.944Z,75
2018-12-16T08:25:00.671Z,80
2018-12-16T08:26:00.892Z,85
2018-12-16T08:27:00.876Z,85
2018-12-16T08:28:00.858Z,85
2018-12-16T08:29:02.344Z,80
2018-12-16T08:30:00.572Z,70
2018-12-16T08:31:00.548Z,75
2018-12-16T08:32:00.527Z,70
2018-12-16T08:33:00.650Z,65
2018-12-16T08:34:00.731Z,65
2018-12-16T08:35:00.719Z,65
2018-12-16T08:36:00.698Z,70
2018-12-16T08:37:00.424Z,70
2018-12-16T08:38:00.653Z,70
2018-12-16T08:39:00.629Z,75
2018-12-16T08:40:00.119Z,75
2018-12-16T08:41:00.336Z,80
2018-12-16T08:42:00.636Z,80
2018-12-16T08:43:00.550Z,80
2018-12-16T08:44:00.526Z,80
2018-12-16T08:45:00.508Z,80
2018-12-16T08:46:00.485Z,75
2018-12-16T08:47:00.467Z,75
2018-12-16T08:48:00.449Z,70
2018-12-16T08:49:00.418Z,70
2018-12-16T08:50:00.489Z,70
2018-12-16T08:51:00.398Z,70
2018-12-16T08:52:00.360Z,70
2018-12-16T08:53:00.341Z,70
2018-12-16T08:54:00.319Z,75
2018-12-16T08:55:00.295Z,75
2018-12-16T08:56:00.182Z,80
2018-12-16T08:57:00.255Z,85
2018-12-16T08:58:00.239Z,85
2018-12-16T08:59:00.258Z,90
2018-12-16T09:00:00.189Z,95
2018-12-16T09:00:59.931Z,105
2018-12-16T09:01:59.665Z,115
2018-12-16T09:03:00.130Z,120
2018-12-16T09:04:00.126Z,130
2018-12-16T09:05:00.093Z,140
2018-12-16T09:05:59.821Z,145
2018-12-16T09:07:00.050Z,145
2018-12-16T09:08:00.031Z,150
2018-12-16T09:08:59.762Z,150
2018-12-16T09:09:59.985Z,150
2018-12-16T09:11:00.028Z,140
2018-12-16T09:11:59.709Z,135
2018-12-16T09:12:59.997Z,130
2018-12-16T09:13:59.911Z,125
2018-12-16T09:14:59.642Z,120
2018-12-16T09:15:59.866Z,115
2018-12-16T09:17:00.889Z,115
2018-12-16T09:17:59.573Z,110
2018-12-16T09:18:59.552Z,110
2018-12-16T09:19:59.296Z,105
2018-12-16T09:20:59.271Z,105
2018-12-16T09:21:59.746Z,105
2018-12-16T09:22:59.722Z,110
2018-12-16T09:23:59.207Z,115
2018-12-16T09:24:59.684Z,115
2018-12-16T09:25:59.421Z,120
2018-12-16T09:26:59.642Z,125
2018-12-16T09:27:59.618Z,130
2018-12-16T09:28:59.602Z,130
2018-12-16T09:29:59.580Z,135
2018-12-16T09:31:05.251Z,135
2018-12-16T09:31:59.552Z,135
2018-12-16T09:32:59.523Z,135
2018-12-16T09:33:59.252Z,135
2018-12-16T09:34:59.480Z,135
2018-12-16T09:35:59.465Z,135
2018-12-16T09:36:59.442Z,135
2018-12-16T09:37:59.427Z,140
2018-12-16T09:38:59.418Z,145
2018-12-16T09:39:59.385Z,145
2018-12-16T09:40:59.357Z,150
2018-12-16T09:41:59.351Z,150
2018-12-16T09:42:59.322Z,150
2018-12-16T09:43:59.302Z,155
2018-12-16T09:44:58.785Z,155
2018-12-16T09:45:59.012Z,155
2018-12-16T09:46:58.741Z,150
2018-12-16T09:47:59.304Z,150
2018-12-16T09:48:59.268Z,145
2018-12-16T09:49:59.194Z,145
2018-12-16T09:50:58.924Z,145
2018-12-16T09:51:59.256Z,145
2018-12-16T09:52:59.125Z,145
2018-12-16T09:53:59.149Z,145
2018-12-16T09:54:59.077Z,145
2018-12-16T09:55:58.816Z,145
2018-12-16T09:56:59.038Z,145
2018-12-16T09:57:58.540Z,150
2018-12-16T09:58:59.001Z,150
2018-12-16T09:59:58.737Z,150
2018-12-16T10:00:58.960Z,155
2018-12-16T10:01:58.948Z,155
2018-12-16T10:02:58.921Z,155
2018-12-16T10:03:58.901Z,155
2018-12-16T10:04:58.634Z,155
2018-12-16T10:05:58.871Z,155
2018-12-16T10:06:58.601Z,160
2018-12-16T10:07:58.838Z,165
2018-12-16T10:08:58.558Z,170
2018-12-16T10:09:58.784Z,175
2018-12-16T10:10:58.764Z,180
2018-12-16T10:11:58.743Z,185
2018-12-16T10:12:58.724Z,195
2018-12-16T10:13:58.504Z,195
2018-12-16T10:14:58.686Z,200
2018-12-16T10:15:58.668Z,200
2018-12-16T10:16:58.648Z,200
2018-12-16T10:17:58.133Z,195
2018-12-16T10:18:58.612Z,190
2018-12-16T10:19:58.592Z,180
2018-12-16T10:20:58.568Z,175
2018-12-16T10:21:58.550Z,170
2018-12-16T10:22:58.276Z,165
2018-12-16T10:23:58.514Z,160
2018-12-16T10:25:01.141Z,155
2018-12-16T10:25:58.473Z,155
2018-12-16T10:26:58.457Z,150
2018-12-16T10:27:58.441Z,150
2018-12-16T10:28:58.424Z,150
2018-12-16T10:29:58.151Z,150
2018-12-16T10:30:58.373Z,150
2018-12-16T10:31:58.366Z,150
2018-12-16T10:32:58.340Z,155
2018-12-16T10:33:58.074Z,155
2018-12-16T10:34:58.300Z,155
2018-12-16T10:35:58.026Z,155
2018-12-16T10:36:58.010Z,155
2018-12-16T10:37:58.249Z,155
2018-12-16T10:38:57.974Z,160
2018-12-16T10:39:58.206Z,165
2018-12-16T10:40:58.178Z,165
2018-12-16T10:41:57.914Z,170
2018-12-16T10:42:58.138Z,175
2018-12-16T10:43:58.121Z,180
2018-12-16T10:44:57.854Z,185
2018-12-16T10:45:57.839Z,185
2018-12-16T10:46:57.897Z,190
2018-12-16T10:47:57.802Z,190
2018-12-16T10:49:04.500Z,190
2018-12-16T10:49:57.807Z,190
2018-12-16T10:50:58.003Z,190
2018-12-16T10:51:57.970Z,185
2018-12-16T10:52:57.951Z,185
2018-12-16T10:53:57.686Z,180
2018-12-16T10:55:03.302Z,170
2018-12-16T10:55:57.643Z,165
2018-12-16T10:56:57.886Z,160
2018-12-16T10:57:57.854Z,150
2018-12-16T10:58:57.833Z,140
2018-12-16T10:59:57.809Z,140
2018-12-16T11:00:57.546Z,140
2018-12-16T11:01:57.542Z,135
2018-12-16T11:02:57.757Z,135
2018-12-16T11:03:57.737Z,135
2018-12-16T11:04:57.719Z,135
2018-12-16T11:05:57.702Z,135
2018-12-16T11:06:57.191Z,135
2018-12-16T11:07:57.657Z,130
2018-12-16T11:08:57.642Z,125
2018-12-16T11:09:57.423Z,125
2018-12-16T11:10:57.601Z,120
2018-12-16T11:11:57.581Z,115
2018-12-16T11:12:57.312Z,115
2018-12-16T11:13:57.542Z,115
2018-12-16T11:14:57.621Z,115
2018-12-16T11:15:57.510Z,115
2018-12-16T11:16:57.496Z,120
2018-12-16T11:17:57.467Z,125
2018-12-16T11:18:57.442Z,130
2018-12-16T11:19:57.172Z,135
2018-12-16T11:20:57.404Z,140
2018-12-16T11:21:57.387Z,140
2018-12-16T11:22:57.369Z,140
2018-12-16T11:24:03.479Z,135
2018-12-16T11:24:57.080Z,135
2018-12-16T11:25:57.315Z,130
2018-12-16T11:26:57.291Z,125
2018-12-16T11:27:57.275Z,125
2018-12-16T11:28:57.252Z,120
2018-12-16T11:29:57.231Z,120
2018-12-16T11:30:56.958Z,115
2018-12-16T11:31:57.198Z,110
2018-12-16T11:32:56.926Z,110
2018-12-16T11:33:56.906Z,105
2018-12-16T11:34:56.954Z,100
2018-12-16T11:35:57.123Z,100
2018-12-16T11:36:56.597Z,100
2018-12-16T11:37:57.168Z,100
2018-12-16T11:38:57.056Z,105
2018-12-16T11:39:58.095Z,110
2018-12-16T11:40:57.017Z,115
2018-12-16T11:41:56.751Z,120
2018-12-16T11:42:56.975Z,125
2018-12-16T11:43:56.957Z,130
2018-12-16T11:44:56.703Z,135
2018-12-16T11:45:56.920Z,140
2018-12-16T11:46:56.900Z,145
2018-12-16T11:47:56.632Z,150
2018-12-16T11:48:56.363Z,155
2018-12-16T11:49:56.646Z,160
2018-12-16T11:50:56.824Z,160
2018-12-16T11:51:56.810Z,160
2018-12-16T11:52:56.788Z,155
2018-12-16T11:53:56.263Z,155
2018-12-16T11:54:56.903Z,155
2018-12-16T11:55:56.720Z,155
2018-12-16T11:56:56.457Z,155
2018-12-16T11:57:56.190Z,155
2018-12-16T11:58:56.667Z,155
2018-12-16T11:59:56.398Z,150
2018-12-16T12:00:56.628Z,150
2018-12-16T12:01:56.611Z,150
2018-12-16T12:02:56.586Z,145
2018-12-16T12:03:56.324Z,140
2018-12-16T12:04:56.596Z,135
2018-12-16T12:05:56.527Z,135
2018-12-16T12:06:56.510Z,130
2018-12-16T12:07:56.552Z,130
2018-12-16T12:08:56.477Z,130
2018-12-16T12:09:56.505Z,130
2018-12-16T12:10:56.185Z,130
2018-12-16T12:11:56.510Z,125
2018-12-16T12:12:56.201Z,125
2018-12-16T12:13:56.387Z,125
2018-12-16T12:14:56.165Z,125
2018-12-16T12:15:56.335Z,125
2018-12-16T12:16:56.063Z,125
2018-12-16T12:17:56.297Z,125
2018-12-16T12:18:55.780Z,125
2018-12-16T12:19:56.260Z,125
2018-12-16T12:20:56.236Z,120
2018-12-16T12:21:55.973Z,120
2018-12-16T12:22:56.198Z,120
2018-12-16T12:23:56.193Z,120
2018-12-16T12:24:56.202Z,125
2018-12-16T12:25:55.891Z,125
2018-12-16T12:26:56.122Z,130
2018-12-16T12:27:56.094Z,130
2018-12-16T12:28:55.833Z,135
2018-12-16T12:29:56.063Z,135
2018-12-16T12:30:56.089Z,140
2018-12-16T12:31:55.778Z,140
2018-12-16T12:32:58.721Z,145
2018-12-16T12:33:55.984Z,140
2018-12-16T12:34:55.707Z,145
2018-12-16T12:35:55.692Z,150
2018-12-16T12:36:55.919Z,150
2018-12-16T12:37:55.948Z,155
2018-12-16T12:38:55.882Z,155
2018-12-16T12:39:55.869Z,155
2018-12-16T12:40:55.843Z,155
2018-12-16T12:41:55.818Z,150
2018-12-16T12:42:55.059Z,150
2018-12-16T12:43:55.789Z,145
2018-12-16T12:44:55.514Z,145
2018-12-16T12:45:55.797Z,150
2018-12-16T12:46:55.482Z,150
2018-12-16T12:47:55.215Z,150
2018-12-16T12:48:55.440Z,145
2018-12-16T12:49:55.668Z,145
2018-12-16T12:50:55.648Z,145
2018-12-16T12:51:55.628Z,140
2018-12-16T12:52:55.362Z,140
2018-12-16T12:53:55.348Z,140
2018-12-16T12:54:55.582Z,135
2018-12-16T12:55:55.551Z,130
2018-12-16T12:56:55.530Z,130
2018-12-16T12:57:54.834Z,125
2018-12-16T12:58:55.257Z,125
2018-12-16T12:59:55.471Z,120
2018-12-16T13:00:55.501Z,120
2018-12-16T13:01:55.262Z,120
2018-12-16T13:02:55.414Z,120
2018-12-16T13:03:55.392Z,115
2018-12-16T13:04:55.379Z,115
2018-12-16T13:05:55.656Z,110
2018-12-16T13:06:55.089Z,105
2018-12-16T13:07:55.318Z,100
2018-12-16T13:08:54.551Z,95
2018-12-16T13:09:55.284Z,90
2018-12-16T13:10:55.263Z,85
2018-12-16T13:11:54.989Z,85
2018-12-16T13:12:55.221Z,80
2018-12-16T13:13:55.201Z,85
2018-12-16T13:14:55.185Z,80
2018-12-16T13:15:55.165Z,75
2018-12-16T13:16:55.157Z,70
2018-12-16T13:17:55.145Z,70
2018-12-16T13:18:54.858Z,65
2018-12-16T13:19:55.087Z,60
2018-12-16T13:20:54.877Z,60
2018-12-16T13:21:54.794Z,60
2018-12-16T13:22:55.021Z,60
2018-12-16T13:23:55.023Z,60
2018-12-16T13:24:55.049Z,55
2018-12-16T13:25:55.018Z,55
2018-12-16T13:26:54.946Z,55
2018-12-16T13:27:54.925Z,55
2018-12-16T13:28:54.907Z,55
2018-12-16T13:29:54.644Z,55
2018-12-16T13:30:54.865Z,55
2018-12-16T13:31:54.846Z,55
2018-12-16T13:32:54.848Z,50
2018-12-16T13:33:54.640Z,50
2018-12-16T13:34:54.546Z,55
2018-12-16T13:35:54.772Z,55
2018-12-16T13:36:55.051Z,60
2018-12-16T13:37:54.727Z,60
2018-12-16T13:38:54.461Z,55
2018-12-16T13:39:54.718Z,55
2018-12-16T13:40:54.720Z,55
2018-12-16T13:41:55.063Z,50
2018-12-16T13:42:54.388Z,50
2018-12-16T13:43:54.611Z,55
2018-12-16T13:44:54.587Z,55
2018-12-16T13:45:54.618Z,55
2018-12-16T13:46:54.555Z,55
2018-12-16T13:47:54.575Z,55
2018-12-16T13:48:54.511Z,55
2018-12-16T13:49:54.487Z,60
2018-12-16T13:50:54.474Z,60
2018-12-16T13:51:54.206Z,60
2018-12-16T13:52:54.438Z,65
2018-12-16T13:53:54.415Z,65
2018-12-16T13:54:54.466Z,65
2018-12-16T13:55:54.368Z,60
2018-12-16T13:56:54.351Z,60
2018-12-16T13:57:54.081Z,60
2018-12-16T13:58:54.311Z,60
2018-12-16T13:59:54.307Z,55
2018-12-16T14:00:54.322Z,55
2018-12-16T14:01:54.248Z,50
2018-12-16T14:02:54.771Z,50
2018-12-16T14:03:53.955Z,45
2018-12-16T14:04:54.187Z,40
2018-12-16T14:05:56.219Z,40
2018-12-16T14:06:54.148Z,35
2018-12-16T14:07:54.130Z,30
2018-12-16T14:08:54.105Z,30
2018-12-16T14:09:54.092Z,30
2018-12-16T14:10:54.065Z,30
2018-12-16T14:11:54.049Z,25
2018-12-16T14:12:54.022Z,25
2018-12-16T14:13:54.010Z,25
2018-12-16T14:14:54.735Z,30
2018-12-16T14:15:59.570Z,30
2018-12-16T14:16:53.996Z,30
2018-12-16T14:17:55.292Z,30
2018-12-16T14:18:53.657Z,30
2018-12-16T14:19:53.885Z,30
2018-12-16T14:20:53.861Z,30
2018-12-16T14:21:53.995Z,30